Time,TemperatureF,DewpointF,PressureIn,WindDirection,WindDirectionDegrees,WindSpeedMPH,WindSpeedGustMPH,Humidity,HourlyPrecipIn,Conditions,Clouds,dailyrainin,SoftwareType,DateUTC
2013-12-28 00:01:00,22.6,19.6,30.20,WNW,292,0.0,-999.0,88,-99.99,,,0.00,Acu-Link.com,2013-12-28 06:01:00,
2013-12-28 00:16:00,22.8,19.8,30.20,SSW,202,0.0,-999.0,88,-99.99,,,0.00,Acu-Link.com,2013-12-28 06:16:00,
2013-12-28 00:32:00,22.3,19.0,30.20,NNW,337,0.0,-999.0,87,-99.99,,,0.00,Acu-Link.com,2013-12-28 06:32:00,
2013-12-28 00:47:00,22.1,19.1,30.20,ENE,67,0.0,-999.0,88,-99.99,,,0.00,Acu-Link.com,2013-12-28 06:47:00,
2013-12-28 01:02:00,21.7,18.7,30.19,WSW,247,0.0,-999.0,88,-99.99,,,0.00,Acu-Link.com,2013-12-28 07:02:00,
2013-12-28 01:17:00,21.7,18.7,30.19,South,180,0.0,-999.0,88,-99.99,,,0.00,Acu-Link.com,2013-12-28 07:17:00,
2013-12-28 01:32:00,21.4,18.4,30.19,NE,45,0.0,-999.0,88,-99.99,,,0.00,Acu-Link.com,2013-12-28 07:32:00,
2013-12-28 01:47:00,21.6,18.9,30.19,SSW,202,0.0,-999.0,89,-99.99,,,0.00,Acu-Link.com,2013-12-28 07:47:00,
2013-12-28 02:03:00,21.0,18.0,30.18,NNE,22,0.0,-999.0,88,-99.99,,,0.00,Acu-Link.com,2013-12-28 08:03:00,
2013-12-28 02:18:00,21.2,18.5,30.18,East,90,0.0,-999.0,89,-99.99,,,0.00,Acu-Link.com,2013-12-28 08:18:00,
2013-12-28 02:33:00,20.5,17.3,30.17,ESE,112,0.0,-999.0,87,-99.99,,,0.00,Acu-Link.com,2013-12-28 08:33:00,
2013-12-28 02:48:00,20.3,17.1,30.16,West,270,0.0,-999.0,87,-99.99,,,0.00,Acu-Link.com,2013-12-28 08:48:00,
2013-12-28 03:03:00,19.9,16.4,30.17,WNW,292,0.0,-999.0,86,-99.99,,,0.00,Acu-Link.com,2013-12-28 09:03:00,
2013-12-28 03:18:00,19.9,16.7,30.16,ENE,67,0.0,-999.0,87,-99.99,,,0.00,Acu-Link.com,2013-12-28 09:18:00,
2013-12-28 03:33:00,20.3,17.3,30.16,South,180,0.0,-999.0,88,-99.99,,,0.00,Acu-Link.com,2013-12-28 09:33:00,
2013-12-28 03:48:00,20.1,17.1,30.15,WNW,292,0.0,-999.0,88,-99.99,,,0.00,Acu-Link.com,2013-12-28 09:48:00,
2013-12-28 04:05:00,19.6,16.1,30.15,NW,315,0.0,-999.0,86,-99.99,,,0.00,Acu-Link.com,2013-12-28 10:05:00,
2013-12-28 04:20:00,19.6,16.4,30.14,SSW,202,0.0,-999.0,87,-99.99,,,0.00,Acu-Link.com,2013-12-28 10:20:00,
2013-12-28 04:35:00,19.4,16.2,30.15,ESE,112,0.0,-999.0,87,-99.99,,,0.00,Acu-Link.com,2013-12-28 10:35:00,
2013-12-28 04:51:00,19.2,16.2,30.14,NNE,22,0.0,-999.0,88,-99.99,,,0.00,Acu-Link.com,2013-12-28 10:51:00,
2013-12-28 05:06:00,19.4,16.4,30.14,SW,225,0.0,-999.0,88,-99.99,,,0.00,Acu-Link.com,2013-12-28 11:06:00,
2013-12-28 05:21:00,19.9,17.2,30.15,South,180,0.0,-999.0,89,-99.99,,,0.00,Acu-Link.com,2013-12-28 11:21:00,
2013-12-28 05:36:00,19.0,15.8,30.14,NNE,22,1.1,-999.0,87,-99.99,,,0.00,Acu-Link.com,2013-12-28 11:36:00,
2013-12-28 05:51:00,18.9,15.7,30.14,ENE,67,0.0,-999.0,87,-99.99,,,0.00,Acu-Link.com,2013-12-28 11:51:00,
2013-12-28 06:06:00,18.7,15.2,30.14,South,180,0.0,-999.0,86,-99.99,,,0.00,Acu-Link.com,2013-12-28 12:06:00,
2013-12-28 06:21:00,18.1,14.4,30.14,SW,225,0.0,-999.0,85,-99.99,,,0.00,Acu-Link.com,2013-12-28 12:21:00,
2013-12-28 06:36:00,19.2,16.5,30.14,SSW,202,0.0,-999.0,89,-99.99,,,0.00,Acu-Link.com,2013-12-28 12:36:00,
2013-12-28 06:51:00,18.7,15.5,30.14,NW,315,0.0,-999.0,87,-99.99,,,0.00,Acu-Link.com,2013-12-28 12:51:00,
2013-12-28 07:07:00,18.5,15.3,30.13,ESE,112,0.0,-999.0,87,-99.99,,,0.00,Acu-Link.com,2013-12-28 13:07:00,
2013-12-28 07:22:00,18.7,15.5,30.13,NE,45,1.1,-999.0,87,-99.99,,,0.00,Acu-Link.com,2013-12-28 13:22:00,
2013-12-28 07:37:00,19.0,16.3,30.13,SSW,202,0.0,-999.0,89,-99.99,,,0.00,Acu-Link.com,2013-12-28 13:37:00,
2013-12-28 07:52:00,19.2,16.2,30.13,NE,45,0.0,-999.0,88,-99.99,,,0.00,Acu-Link.com,2013-12-28 13:52:00,
2013-12-28 08:07:00,21.9,19.4,30.12,South,180,0.0,-999.0,90,-99.99,,,0.00,Acu-Link.com,2013-12-28 14:07:00,
2013-12-28 08:22:00,25.3,22.3,30.12,SSE,157,1.1,-999.0,88,-99.99,,,0.00,Acu-Link.com,2013-12-28 14:22:00,
2013-12-28 08:38:00,27.9,23.7,30.13,ENE,67,0.0,-999.0,84,-99.99,,,0.00,Acu-Link.com,2013-12-28 14:38:00,
2013-12-28 08:53:00,30.7,25.9,30.13,SE,135,0.0,-999.0,82,-99.99,,,0.00,Acu-Link.com,2013-12-28 14:53:00,
2013-12-28 09:08:00,33.8,28.3,30.13,ESE,112,1.7,-999.0,80,-99.99,,,0.00,Acu-Link.com,2013-12-28 15:08:00,
2013-12-28 09:23:00,34.5,28.7,30.14,ESE,112,1.7,-999.0,79,-99.99,,,0.00,Acu-Link.com,2013-12-28 15:23:00,
2013-12-28 09:38:00,36.9,30.7,30.14,SSE,157,1.7,-999.0,78,-99.99,,,0.00,Acu-Link.com,2013-12-28 15:38:00,
2013-12-28 09:53:00,41.2,32.9,30.14,SSW,202,3.7,-999.0,72,-99.99,,,0.00,Acu-Link.com,2013-12-28 15:53:00,
2013-12-28 10:08:00,43.9,34.4,30.13,South,180,2.7,-999.0,69,-99.99,,,0.00,Acu-Link.com,2013-12-28 16:08:00,
2013-12-28 10:24:00,46.8,35.7,30.12,South,180,4.2,-999.0,65,-99.99,,,0.00,Acu-Link.com,2013-12-28 16:24:00,
2013-12-28 10:39:00,48.9,35.6,30.11,South,180,7.8,-999.0,60,-99.99,,,0.00,Acu-Link.com,2013-12-28 16:39:00,
2013-12-28 10:54:00,49.8,35.6,30.10,South,180,5.8,-999.0,58,-99.99,,,0.00,Acu-Link.com,2013-12-28 16:54:00,
2013-12-28 11:09:00,50.2,35.6,30.09,WSW,247,5.8,-999.0,57,-99.99,,,0.00,Acu-Link.com,2013-12-28 17:09:00,
2013-12-28 11:24:00,51.1,35.5,30.08,West,270,7.3,-999.0,55,-99.99,,,0.00,Acu-Link.com,2013-12-28 17:24:00,
2013-12-28 11:39:00,50.4,34.8,30.07,SW,225,6.3,-999.0,55,-99.99,,,0.00,Acu-Link.com,2013-12-28 17:39:00,
2013-12-28 11:54:00,50.4,35.3,30.06,South,180,4.7,-999.0,56,-99.99,,,0.00,Acu-Link.com,2013-12-28 17:54:00,
2013-12-28 12:09:00,51.4,34.8,30.04,SE,135,5.3,-999.0,53,-99.99,,,0.00,Acu-Link.com,2013-12-28 18:09:00,
2013-12-28 12:25:00,50.2,34.2,30.04,South,180,4.2,-999.0,54,-99.99,,,0.00,Acu-Link.com,2013-12-28 18:25:00,
2013-12-28 12:40:00,49.1,33.6,30.03,SSE,157,5.3,-999.0,55,-99.99,,,0.00,Acu-Link.com,2013-12-28 18:40:00,
2013-12-28 12:55:00,49.1,34.1,30.01,South,180,4.7,-999.0,56,-99.99,,,0.00,Acu-Link.com,2013-12-28 18:55:00,
2013-12-28 13:10:00,50.9,34.4,30.00,South,180,8.3,-999.0,53,-99.99,,,0.00,Acu-Link.com,2013-12-28 19:10:00,
2013-12-28 13:25:00,51.8,34.3,29.99,SSE,157,6.3,-999.0,51,-99.99,,,0.00,Acu-Link.com,2013-12-28 19:25:00,
2013-12-28 13:40:00,52.7,32.5,29.97,SE,135,4.2,-999.0,46,-99.99,,,0.00,Acu-Link.com,2013-12-28 19:40:00,
2013-12-28 13:55:00,53.6,32.2,29.96,SE,135,6.8,-999.0,44,-99.99,,,0.00,Acu-Link.com,2013-12-28 19:55:00,
2013-12-28 14:10:00,53.8,32.4,29.94,South,180,7.8,-999.0,44,-99.99,,,0.00,Acu-Link.com,2013-12-28 20:10:00,
2013-12-28 14:25:00,54.3,31.7,29.94,SSE,157,7.8,-999.0,42,-99.99,,,0.00,Acu-Link.com,2013-12-28 20:25:00,
2013-12-28 14:41:00,54.0,30.2,29.94,South,180,4.7,-999.0,40,-99.99,,,0.00,Acu-Link.com,2013-12-28 20:41:00,
2013-12-28 14:56:00,54.0,28.3,29.93,SSW,202,7.3,-999.0,37,-99.99,,,0.00,Acu-Link.com,2013-12-28 20:56:00,
2013-12-28 15:11:00,54.0,29.0,29.92,SSW,202,10.9,-999.0,38,-99.99,,,0.00,Acu-Link.com,2013-12-28 21:11:00,
2013-12-28 15:26:00,54.1,29.7,29.92,SSW,202,5.8,-999.0,39,-99.99,,,0.00,Acu-Link.com,2013-12-28 21:26:00,
2013-12-28 15:41:00,54.0,30.2,29.91,South,180,5.3,-999.0,40,-99.99,,,0.00,Acu-Link.com,2013-12-28 21:41:00,
2013-12-28 15:56:00,53.6,30.5,29.91,South,180,5.3,-999.0,41,-99.99,,,0.00,Acu-Link.com,2013-12-28 21:56:00,
2013-12-28 16:11:00,52.9,31.0,29.90,SSE,157,5.8,-999.0,43,-99.99,,,0.00,Acu-Link.com,2013-12-28 22:11:00,
2013-12-28 16:26:00,51.8,31.7,29.90,SSE,157,8.3,-999.0,46,-99.99,,,0.00,Acu-Link.com,2013-12-28 22:26:00,
2013-12-28 16:41:00,50.5,32.1,29.90,South,180,3.7,-999.0,49,-99.99,,,0.00,Acu-Link.com,2013-12-28 22:41:00,
2013-12-28 16:57:00,48.4,31.6,29.90,SSW,202,3.2,-999.0,52,-99.99,,,0.00,Acu-Link.com,2013-12-28 22:57:00,
2013-12-28 17:12:00,47.1,31.3,29.89,SSE,157,3.7,-999.0,54,-99.99,,,0.00,Acu-Link.com,2013-12-28 23:12:00,
2013-12-28 17:27:00,45.7,30.5,29.90,SSW,202,2.7,-999.0,55,-99.99,,,0.00,Acu-Link.com,2013-12-28 23:27:00,
2013-12-28 17:42:00,43.3,29.9,29.90,SSW,202,1.1,-999.0,59,-99.99,,,0.00,Acu-Link.com,2013-12-28 23:42:00,
2013-12-28 17:57:00,41.4,29.8,29.89,SSW,202,0.0,-999.0,63,-99.99,,,0.00,Acu-Link.com,2013-12-28 23:57:00,
2013-12-28 18:12:00,38.1,28.5,29.90,SSW,202,2.2,-999.0,68,-99.99,,,0.00,Acu-Link.com,2013-12-29 00:12:00,
2013-12-28 18:27:00,38.8,28.8,29.89,South,180,1.7,-999.0,67,-99.99,,,0.00,Acu-Link.com,2013-12-29 00:27:00,
2013-12-28 18:42:00,40.5,29.7,29.88,SSW,202,2.7,-999.0,65,-99.99,,,0.00,Acu-Link.com,2013-12-29 00:42:00,
2013-12-28 18:57:00,38.3,28.3,29.89,SSW,202,0.0,-999.0,67,-99.99,,,0.00,Acu-Link.com,2013-12-29 00:57:00,
2013-12-28 19:13:00,36.3,27.5,29.89,NNE,22,1.1,-999.0,70,-99.99,,,0.00,Acu-Link.com,2013-12-29 01:13:00,
2013-12-28 19:28:00,34.3,26.6,29.87,South,180,0.0,-999.0,73,-99.99,,,0.00,Acu-Link.com,2013-12-29 01:28:00,
2013-12-28 19:43:00,33.1,25.7,29.88,East,90,0.0,-999.0,74,-99.99,,,0.00,Acu-Link.com,2013-12-29 01:43:00,
2013-12-28 19:58:00,31.8,24.8,29.87,NNE,22,0.0,-999.0,75,-99.99,,,0.00,Acu-Link.com,2013-12-29 01:58:00,
2013-12-28 20:13:00,31.6,25.8,29.87,ESE,112,1.1,-999.0,79,-99.99,,,0.00,Acu-Link.com,2013-12-29 02:13:00,
2013-12-28 20:28:00,31.1,25.4,29.87,NNE,22,1.7,-999.0,79,-99.99,,,0.00,Acu-Link.com,2013-12-29 02:28:00,
2013-12-28 20:43:00,31.5,26.1,29.87,East,90,0.0,-999.0,80,-99.99,,,0.00,Acu-Link.com,2013-12-29 02:43:00,
2013-12-28 20:58:00,31.5,25.8,29.87,NNE,22,1.7,-999.0,79,-99.99,,,0.00,Acu-Link.com,2013-12-29 02:58:00,
2013-12-28 21:13:00,31.8,26.0,29.87,NNE,22,0.0,-999.0,79,-99.99,,,0.00,Acu-Link.com,2013-12-29 03:13:00,
2013-12-28 21:28:00,31.8,26.0,29.86,ENE,67,0.0,-999.0,79,-99.99,,,0.00,Acu-Link.com,2013-12-29 03:28:00,
2013-12-28 21:44:00,31.8,26.3,29.86,SSW,202,0.0,-999.0,80,-99.99,,,0.00,Acu-Link.com,2013-12-29 03:44:00,
2013-12-28 21:59:00,32.2,26.7,29.85,SW,225,1.7,-999.0,80,-99.99,,,0.00,Acu-Link.com,2013-12-29 03:59:00,
2013-12-28 22:14:00,32.2,26.4,29.86,SW,225,0.0,-999.0,79,-99.99,,,0.00,Acu-Link.com,2013-12-29 04:14:00,
2013-12-28 22:29:00,32.0,27.1,29.85,SW,225,0.0,-999.0,82,-99.99,,,0.00,Acu-Link.com,2013-12-29 04:29:00,
2013-12-28 22:44:00,32.0,27.1,29.85,NNE,22,0.0,-999.0,82,-99.99,,,0.00,Acu-Link.com,2013-12-29 04:44:00,
2013-12-28 22:59:00,32.2,27.3,29.85,East,90,0.0,-999.0,82,-99.99,,,0.00,Acu-Link.com,2013-12-29 04:59:00,
2013-12-28 23:15:00,32.2,28.2,29.85,NNE,22,1.1,-999.0,85,-99.99,,,0.00,Acu-Link.com,2013-12-29 05:15:00,
2013-12-28 23:30:00,32.2,27.3,29.85,NNE,22,1.7,-999.0,82,-99.99,,,0.00,Acu-Link.com,2013-12-29 05:30:00,
2013-12-28 23:45:00,32.0,27.4,29.85,NE,45,1.7,-999.0,83,-99.99,,,0.00,Acu-Link.com,2013-12-29 05:45:00,